Time;durP1;ratioP1;P1;durP2;ratioP2;P2;SDS_P1;SDS_P2;PMS_P1;PMS_P2;Temp;Humidity;BMP_temperature;BMP_pressure;BME280_temperature;BME280_humidity;BME280_pressure;Samples;Min_cycle;Max_cycle;Signal;HPM_P1;HPM_P2
2023/03/01 00:01:25;;;;;;;12.27;7.27;;;1.60;99.90;;;;;;4968230;28;20511;-78
2023/03/01 00:03:51;;;;;;;11.63;8.17;;;1.60;99.90;;;;;;4968125;28;20480;-78
2023/03/01 00:06:18;;;;;;;10.47;7.20;;;1.60;99.90;;;;;;4968307;28;20086;-78
2023/03/01 00:08:44;;;;;;;11.23;7.67;;;1.50;99.90;;;;;;4967277;28;20664;-78
2023/03/01 00:11:14;;;;;;;12.27;9.13;;;1.50;99.90;;;;;;4968212;28;20043;-78
2023/03/01 00:13:41;;;;;;;13.20;8.03;;;1.50;99.90;;;;;;4967687;28;20093;-78
2023/03/01 00:16:13;;;;;;;12.70;9.53;;;1.50;99.90;;;;;;4967763;28;20497;-78
2023/03/01 00:18:39;;;;;;;13.30;8.52;;;1.50;99.90;;;;;;4967696;28;20042;-78
2023/03/01 00:21:05;;;;;;;10.63;7.43;;;1.50;99.90;;;;;;4967510;28;20488;-78
2023/03/01 00:23:31;;;;;;;13.60;9.97;;;1.40;99.90;;;;;;4966410;28;20038;-78
2023/03/01 00:25:57;;;;;;;10.63;8.77;;;1.40;99.90;;;;;;4967607;28;20046;-77
2023/03/01 00:28:23;;;;;;;11.07;8.10;;;1.40;99.90;;;;;;4950573;28;20422;-77
2023/03/01 00:30:49;;;;;;;12.07;8.07;;;1.40;99.90;;;;;;4967670;28;20042;-78
2023/03/01 00:33:14;;;;;;;12.50;7.90;;;1.40;99.90;;;;;;4968068;28;20042;-78
2023/03/01 00:35:40;;;;;;;8.73;6.30;;;1.40;99.90;;;;;;4967400;28;20130;-78
2023/03/01 00:38:06;;;;;;;12.03;8.00;;;1.40;99.90;;;;;;4966688;28;20047;-78
2023/03/01 00:40:33;;;;;;;10.00;8.20;;;1.40;99.90;;;;;;4958997;28;20043;-78
2023/03/01 00:42:59;;;;;;;10.47;8.33;;;1.40;99.90;;;;;;4948335;29;20047;-78
2023/03/01 00:45:26;;;;;;;11.13;8.90;;;1.40;99.90;;;;;;4948296;29;20035;-78
2023/03/01 00:47:52;;;;;;;9.83;7.50;;;1.40;99.90;;;;;;4947857;29;20051;-77
2023/03/01 00:50:18;;;;;;;9.37;7.20;;;1.40;99.90;;;;;;4948149;29;20073;-78
2023/03/01 00:52:44;;;;;;;6.60;6.03;;;1.40;99.90;;;;;;4933936;28;20054;-78
2023/03/01 00:55:11;;;;;;;8.60;5.70;;;1.40;99.90;;;;;;4949813;28;20137;-78
2023/03/01 00:57:36;;;;;;;7.43;6.60;;;1.30;99.90;;;;;;4949924;28;20605;-78
2023/03/01 01:00:04;;;;;;;12.37;5.87;;;1.20;99.90;;;;;;4967184;28;20126;-78
2023/03/01 01:02:29;;;;;;;70.93;15.00;;;1.10;99.90;;;;;;4967038;28;20409;-78
2023/03/01 01:04:55;;;;;;;102.30;16.47;;;1.00;99.90;;;;;;4967217;28;20046;-78
2023/03/01 01:07:20;;;;;;;96.20;18.27;;;1.00;99.90;;;;;;4966301;28;20077;-78
2023/03/01 01:09:46;;;;;;;101.53;18.67;;;0.90;99.90;;;;;;4967162;28;20046;-78
2023/03/01 01:12:12;;;;;;;90.53;18.00;;;0.80;99.90;;;;;;4967302;28;20081;-78
2023/03/01 01:14:38;;;;;;;52.43;13.03;;;0.80;99.90;;;;;;4966958;28;20476;-78
2023/03/01 01:17:03;;;;;;;100.70;15.00;;;0.80;99.90;;;;;;4967417;28;20038;-78
2023/03/01 01:19:29;;;;;;;32.73;10.53;;;0.70;99.90;;;;;;4966789;28;20043;-78
2023/03/01 01:21:55;;;;;;;18.80;8.70;;;0.70;99.90;;;;;;4966370;28;20085;-78
2023/03/01 01:24:21;;;;;;;39.37;12.87;;;0.70;99.90;;;;;;4967041;28;20074;-78
2023/03/01 01:26:47;;;;;;;53.30;11.87;;;0.70;99.90;;;;;;4966923;28;20047;-78
2023/03/01 01:29:13;;;;;;;20.53;8.00;;;0.70;99.90;;;;;;4967218;28;20402;-78
2023/03/01 01:31:40;;;;;;;9.17;5.00;;;0.70;99.90;;;;;;4967276;28;20082;-78
2023/03/01 01:34:07;;;;;;;41.83;8.17;;;0.70;99.90;;;;;;4971151;28;20125;-78
2023/03/01 01:36:34;;;;;;;31.83;10.27;;;0.70;99.90;;;;;;4969809;28;20055;-78
2023/03/01 01:39:00;;;;;;;18.10;6.30;;;0.70;99.90;;;;;;4970567;28;20505;-78
2023/03/01 01:41:28;;;;;;;22.07;6.83;;;0.70;99.90;;;;;;4954964;28;20514;-78
2023/03/01 01:44:17;;;;;;;16.03;5.40;;;0.60;99.90;;;;;;4951448;29;20047;-78
2023/03/01 01:46:52;;;;;;;57.77;8.37;;;0.60;99.90;;;;;;4954733;28;20050;-78
2023/03/01 01:49:17;;;;;;;4.80;4.27;;;0.50;99.90;;;;;;4959837;28;20042;-78
2023/03/01 01:51:48;;;;;;;9.40;6.20;;;0.50;99.90;;;;;;4969496;28;20039;-78
2023/03/01 01:54:37;;;;;;;6.00;3.63;;;0.40;99.90;;;;;;4970359;28;20047;-78
2023/03/01 01:57:10;;;;;;;7.27;3.70;;;0.40;99.90;;;;;;4957645;28;20046;-78
2023/03/01 01:59:37;;;;;;;7.97;4.10;;;0.40;99.90;;;;;;4969904;28;20035;-78
2023/03/01 02:02:04;;;;;;;4.20;3.80;;;0.40;99.90;;;;;;4952773;28;20094;-78
2023/03/01 02:04:32;;;;;;;5.43;4.90;;;0.40;99.90;;;;;;4969778;28;20042;-78
2023/03/01 02:07:06;;;;;;;5.50;4.57;;;0.40;99.90;;;;;;4969391;28;20034;-78
2023/03/01 02:09:33;;;;;;;5.43;4.87;;;0.40;99.90;;;;;;4952594;28;20045;-78
2023/03/01 02:11:59;;;;;;;7.27;4.43;;;0.30;99.90;;;;;;5011916;23;20158;-78
2023/03/01 02:14:26;;;;;;;7.00;4.30;;;0.30;99.90;;;;;;4950448;28;20164;-78
2023/03/01 02:16:52;;;;;;;6.40;4.07;;;0.30;99.90;;;;;;4934035;29;20058;-78
2023/03/01 02:19:34;;;;;;;8.17;5.40;;;0.30;99.90;;;;;;4951391;29;20339;-77
2023/03/01 02:22:15;;;;;;;4.47;4.07;;;0.30;99.90;;;;;;4950037;29;20078;-78
2023/03/01 02:24:50;;;;;;;6.13;5.10;;;0.30;99.90;;;;;;4950591;29;20106;-77
2023/03/01 02:27:23;;;;;;;6.33;4.07;;;0.30;99.90;;;;;;4950612;29;20533;-78
2023/03/01 02:29:49;;;;;;;6.17;4.47;;;0.30;99.90;;;;;;4951075;29;20416;-78
2023/03/01 02:32:16;;;;;;;4.57;3.90;;;0.20;99.90;;;;;;4950492;29;20118;-78
2023/03/01 02:34:42;;;;;;;3.53;3.13;;;0.20;99.90;;;;;;4933561;29;20441;-77
2023/03/01 02:37:14;;;;;;;5.80;4.60;;;0.20;99.90;;;;;;4932455;29;20058;-78
2023/03/01 02:39:45;;;;;;;;;;;0.20;99.90;;;;;;4932331;29;20058;-77
2023/03/01 02:42:16;;;;;;;6.03;5.43;;;0.20;99.90;;;;;;4931250;29;19923;-77
2023/03/01 02:44:42;;;;;;;4.63;2.97;;;0.20;99.90;;;;;;4946168;28;20698;-78
2023/03/01 02:47:07;;;;;;;5.53;4.20;;;0.20;99.90;;;;;;4965714;28;20039;-77
2023/03/01 02:49:35;;;;;;;6.63;3.97;;;0.20;99.90;;;;;;4949823;29;20058;-77
2023/03/01 02:52:24;;;;;;;5.57;4.17;;;0.20;99.90;;;;;;4932360;29;20039;-78
2023/03/01 02:55:01;;;;;;;6.23;4.27;;;0.20;99.90;;;;;;4921356;29;20191;-78
2023/03/01 02:57:29;;;;;;;7.53;5.03;;;0.20;99.90;;;;;;4949952;29;20055;-78
2023/03/01 02:59:57;;;;;;;4.87;4.33;;;0.20;99.90;;;;;;4933038;29;20047;-77
2023/03/01 03:02:46;;;;;;;8.73;4.73;;;0.20;99.90;;;;;;4949214;29;20050;-78
2023/03/01 03:05:15;;;;;;;9.40;6.23;;;0.10;99.90;;;;;;4949573;29;20062;-77
2023/03/01 03:07:43;;;;;;;5.77;4.70;;;0.10;99.90;;;;;;4931800;29;20143;-78
2023/03/01 03:10:15;;;;;;;9.97;4.33;;;0.20;99.90;;;;;;4949805;29;20130;-77
2023/03/01 03:12:41;;;;;;;3.78;3.15;;;0.10;99.90;;;;;;4926438;29;20058;-78
2023/03/01 03:15:09;;;;;;;34.03;8.97;;;0.10;99.90;;;;;;4935834;29;20044;-77
2023/03/01 03:17:37;;;;;;;101.37;14.97;;;0.10;99.90;;;;;;4934205;29;20094;-78
2023/03/01 03:20:04;;;;;;;49.40;6.63;;;0.10;99.90;;;;;;4949942;29;20047;-78
2023/03/01 03:22:30;;;;;;;50.80;11.27;;;0.10;99.90;;;;;;4931653;29;20094;-78
2023/03/01 03:24:56;;;;;;;60.33;6.83;;;0.00;99.90;;;;;;4949829;29;20047;-77
2023/03/01 03:27:21;;;;;;;20.17;5.13;;;0.00;99.90;;;;;;4949831;29;20101;-77
2023/03/01 03:29:47;;;;;;;14.53;7.47;;;-0.10;99.90;;;;;;4949321;29;20379;-77
2023/03/01 03:32:12;;;;;;;54.57;16.60;;;-0.10;99.90;;;;;;4949831;28;20039;-77
2023/03/01 03:34:38;;;;;;;100.67;12.90;;;-0.10;99.90;;;;;;4949539;28;20186;-78
2023/03/01 03:38:01;;;;;;;32.70;7.73;;;-0.10;99.90;;;;;;4948667;28;20058;-77
2023/03/01 03:39:49;;;;;;;17.97;6.10;;;-0.10;99.90;;;;;;4932402;29;20047;-77
2023/03/01 03:42:15;;;;;;;46.57;7.30;;;-0.20;99.90;;;;;;4949316;29;20061;-77
2023/03/01 03:44:40;;;;;;;59.30;9.17;;;-0.20;99.90;;;;;;4948974;29;20055;-78
2023/03/01 03:47:06;;;;;;;68.93;8.93;;;-0.30;99.90;;;;;;4949630;29;20043;-77
2023/03/01 03:49:33;;;;;;;43.43;10.03;;;-0.30;99.90;;;;;;4948901;29;20156;-78
2023/03/01 03:51:58;;;;;;;46.90;11.03;;;-0.30;99.90;;;;;;4948345;29;20047;-78
2023/03/01 03:54:24;;;;;;;12.83;7.57;;;-0.30;99.90;;;;;;4948950;28;20552;-78
2023/03/01 03:56:49;;;;;;;15.33;8.17;;;-0.30;99.90;;;;;;4949306;29;20062;-77
2023/03/01 03:59:15;;;;;;;42.47;10.00;;;-0.30;99.90;;;;;;4949326;29;20078;-77
2023/03/01 04:01:41;;;;;;;15.77;5.23;;;-0.30;99.90;;;;;;4948690;29;20097;-78
2023/03/01 04:04:07;;;;;;;14.30;6.03;;;-0.40;99.90;;;;;;4949074;29;20122;-77
2023/03/01 04:06:33;;;;;;;18.60;6.20;;;-0.30;99.90;;;;;;4930761;29;20051;-78
2023/03/01 04:09:02;;;;;;;113.87;15.30;;;-0.30;99.90;;;;;;4949039;28;20050;-78
2023/03/01 04:11:28;;;;;;;28.10;8.83;;;-0.30;99.90;;;;;;4948388;28;20062;-77
2023/03/01 04:13:56;;;;;;;13.23;5.63;;;-0.30;99.90;;;;;;4949368;28;20047;-78
2023/03/01 04:16:23;;;;;;;18.10;8.23;;;-0.30;99.90;;;;;;4949151;28;20085;-77
2023/03/01 04:18:48;;;;;;;51.53;8.33;;;-0.20;99.90;;;;;;4948598;28;20123;-78
2023/03/01 04:21:15;;;;;;;40.63;9.80;;;-0.20;99.90;;;;;;4947685;28;20158;-78
2023/03/01 04:23:43;;;;;;;62.97;9.60;;;-0.30;99.90;;;;;;4948576;28;20047;-78
2023/03/01 04:26:09;;;;;;;137.87;20.47;;;-0.30;99.90;;;;;;4948397;28;20050;-77
2023/03/01 04:28:38;;;;;;;18.90;6.47;;;-0.30;99.90;;;;;;4948047;28;20438;-78
2023/03/01 04:31:17;;;;;;;41.27;9.70;;;-0.30;99.90;;;;;;4948068;29;20039;-78
2023/03/01 04:33:47;;;;;;;12.13;7.03;;;-0.30;99.90;;;;;;4948158;29;20039;-77
2023/03/01 04:36:14;;;;;;;10.80;6.43;;;-0.30;99.90;;;;;;4930548;29;20133;-78
2023/03/01 04:38:40;;;;;;;6.27;5.77;;;-0.30;99.90;;;;;;4930950;28;20085;-78
2023/03/01 04:41:10;;;;;;;44.53;10.03;;;-0.30;99.90;;;;;;4948636;29;20182;-78
2023/03/01 04:43:36;;;;;;;14.73;7.73;;;-0.30;99.90;;;;;;4948279;29;20122;-78
2023/03/01 04:46:03;;;;;;;92.00;6.63;;;-0.30;99.90;;;;;;4948146;29;20174;-78
2023/03/01 04:48:30;;;;;;;30.17;8.90;;;-0.30;99.90;;;;;;4948046;29;20363;-78
2023/03/01 04:50:56;;;;;;;9.10;5.87;;;-0.30;99.90;;;;;;4946948;28;20126;-78
2023/03/01 04:53:21;;;;;;;8.80;5.80;;;-0.30;99.90;;;;;;4948688;28;20134;-78
2023/03/01 04:55:47;;;;;;;28.93;10.57;;;-0.30;99.90;;;;;;4948088;29;20050;-77
2023/03/01 04:58:12;;;;;;;29.60;7.87;;;-0.30;99.90;;;;;;4948317;28;20043;-77
2023/03/01 05:00:38;;;;;;;11.50;5.90;;;-0.30;99.90;;;;;;4930826;29;20516;-77
2023/03/01 05:03:03;;;;;;;35.73;11.20;;;-0.20;99.90;;;;;;4948322;29;20417;-78
2023/03/01 05:05:34;;;;;;;80.60;12.67;;;-0.30;99.90;;;;;;4947704;28;20039;-77
2023/03/01 05:08:02;;;;;;;35.60;9.80;;;-0.30;99.90;;;;;;4947312;29;20383;-78
2023/03/01 05:10:30;;;;;;;79.77;9.77;;;-0.30;99.90;;;;;;4947676;28;20051;-78
2023/03/01 05:12:57;;;;;;;112.70;13.13;;;-0.40;99.90;;;;;;4930903;29;20078;-78
2023/03/01 05:15:25;;;;;;;15.60;7.53;;;-0.40;99.90;;;;;;4948355;28;20425;-77
2023/03/01 05:17:52;;;;;;;123.13;16.50;;;-0.30;99.90;;;;;;4948429;28;20094;-78
2023/03/01 05:20:22;;;;;;;159.60;20.60;;;-0.40;99.90;;;;;;4947994;29;20419;-77
2023/03/01 05:22:48;;;;;;;110.93;20.03;;;-0.40;99.90;;;;;;4946751;28;20454;-77
2023/03/01 05:25:14;;;;;;;82.70;9.37;;;-0.40;99.90;;;;;;4930592;29;20502;-77
2023/03/01 05:27:40;;;;;;;126.23;22.13;;;-0.40;99.90;;;;;;4947940;29;20054;-77
2023/03/01 05:30:13;;;;;;;63.20;13.17;;;-0.40;99.90;;;;;;4930667;29;20043;-77
2023/03/01 05:32:44;;;;;;;50.00;14.73;;;-0.50;99.90;;;;;;4947298;28;20061;-77
2023/03/01 05:35:13;;;;;;;10.50;6.83;;;-0.40;99.90;;;;;;4948079;29;20066;-77
2023/03/01 05:37:40;;;;;;;86.57;11.50;;;-0.50;99.90;;;;;;4946357;28;20062;-78
2023/03/01 05:40:15;;;;;;;40.97;13.47;;;-0.50;99.90;;;;;;4930474;29;20074;-78
2023/03/01 05:42:42;;;;;;;24.27;6.17;;;-0.50;99.90;;;;;;4947326;29;20039;-77
2023/03/01 05:45:09;;;;;;;18.20;10.33;;;-0.50;99.90;;;;;;4930253;29;20043;-77
2023/03/01 05:47:35;;;;;;;128.77;14.70;;;-0.50;99.90;;;;;;4947517;28;20089;-78
2023/03/01 05:50:01;;;;;;;61.40;13.23;;;-0.60;99.90;;;;;;4947855;28;20483;-77
2023/03/01 05:52:27;;;;;;;24.47;7.90;;;-0.60;99.90;;;;;;4946267;28;20126;-78
2023/03/01 05:54:52;;;;;;;11.43;6.00;;;-0.60;99.90;;;;;;4948327;29;20075;-77
2023/03/01 05:57:18;;;;;;;64.77;12.30;;;-0.60;99.90;;;;;;4947247;29;20047;-77
2023/03/01 05:59:43;;;;;;;82.87;14.30;;;-0.60;99.90;;;;;;4946975;28;20047;-77
2023/03/01 06:02:09;;;;;;;50.17;9.50;;;-0.60;99.90;;;;;;4947494;29;20401;-77
2023/03/01 06:04:34;;;;;;;108.77;16.00;;;-0.60;99.90;;;;;;4929714;28;20043;-77
2023/03/01 06:07:00;;;;;;;22.77;6.20;;;-0.60;99.90;;;;;;4946751;29;20039;-78
2023/03/01 06:09:25;;;;;;;13.23;6.93;;;-0.60;99.90;;;;;;4925039;29;20047;-78
2023/03/01 06:11:51;;;;;;;57.40;6.60;;;-0.60;99.90;;;;;;4931917;28;20118;-78
2023/03/01 06:14:17;;;;;;;121.80;15.63;;;-0.60;99.90;;;;;;4947780;29;20055;-78
2023/03/01 06:16:42;;;;;;;78.47;12.87;;;-0.60;99.90;;;;;;4946660;29;20391;-78
2023/03/01 06:19:08;;;;;;;95.47;13.10;;;-0.60;99.90;;;;;;4950123;28;20058;-78
2023/03/01 06:21:34;;;;;;;42.17;5.90;;;-0.60;99.90;;;;;;4949806;29;20449;-78
2023/03/01 06:23:59;;;;;;;10.20;6.53;;;-0.60;99.90;;;;;;4950669;28;20047;-78
2023/03/01 06:26:25;;;;;;;11.57;5.03;;;-0.60;99.90;;;;;;4950323;28;20044;-78
2023/03/01 06:28:50;;;;;;;11.33;4.70;;;-0.60;99.90;;;;;;4950819;29;20513;-78
2023/03/01 06:31:16;;;;;;;9.33;5.67;;;-0.60;99.90;;;;;;4950307;29;20043;-78
2023/03/01 06:33:41;;;;;;;6.30;4.67;;;-0.60;99.90;;;;;;4932429;29;20142;-78
2023/03/01 06:36:08;;;;;;;5.83;4.77;;;-0.60;99.90;;;;;;4949282;29;20077;-78
2023/03/01 06:38:33;;;;;;;8.53;5.47;;;-0.60;99.90;;;;;;4933016;29;20055;-78
2023/03/01 06:40:59;;;;;;;10.90;5.70;;;-0.70;99.90;;;;;;4950238;28;20046;-78
2023/03/01 06:43:25;;;;;;;7.87;5.37;;;-0.70;99.90;;;;;;4949652;29;20039;-78
2023/03/01 06:45:50;;;;;;;5.40;4.90;;;-0.70;99.90;;;;;;4949112;28;20049;-78
2023/03/01 06:48:17;;;;;;;8.23;5.30;;;-0.70;99.90;;;;;;4939260;29;20040;-78
2023/03/01 06:50:42;;;;;;;5.50;4.77;;;-0.70;99.90;;;;;;4927777;29;20043;-79
2023/03/01 06:53:08;;;;;;;7.40;5.03;;;-0.70;99.90;;;;;;4952284;28;20516;-80
2023/03/01 06:55:33;;;;;;;5.07;4.27;;;-0.80;99.90;;;;;;4948681;29;20050;-79
2023/03/01 06:58:00;;;;;;;9.03;5.43;;;-0.80;99.90;;;;;;4949654;28;20490;-83
2023/03/01 07:00:27;;;;;;;4.50;4.10;;;-0.70;99.90;;;;;;4937740;29;20111;-83
2023/03/01 07:02:53;;;;;;;6.77;3.77;;;-0.70;99.90;;;;;;4945744;28;20521;-79
2023/03/01 07:05:19;;;;;;;7.47;4.60;;;-0.80;99.90;;;;;;4929768;29;20040;-80
2023/03/01 07:07:45;;;;;;;6.07;4.50;;;-0.80;99.90;;;;;;4937580;29;20054;-79
2023/03/01 07:10:10;;;;;;;35.27;7.63;;;-0.80;99.90;;;;;;4941887;28;20054;-78
2023/03/01 07:12:36;;;;;;;23.30;6.80;;;-0.80;99.90;;;;;;4931786;29;20058;-75
2023/03/01 07:15:03;;;;;;;11.00;5.73;;;-0.80;99.90;;;;;;4950589;28;20035;-76
2023/03/01 07:17:29;;;;;;;8.47;5.67;;;-0.80;99.90;;;;;;4950106;28;20368;-75
2023/03/01 07:19:55;;;;;;;9.60;5.03;;;-0.80;99.90;;;;;;4949473;28;20046;-79
2023/03/01 07:22:20;;;;;;;85.07;13.13;;;-0.80;99.90;;;;;;4949384;28;20051;-77
2023/03/01 07:24:46;;;;;;;130.33;21.83;;;-0.80;99.90;;;;;;4950165;28;20073;-76
2023/03/01 07:27:11;;;;;;;162.27;26.07;;;-0.80;99.90;;;;;;4949951;28;20125;-81
2023/03/01 07:29:37;;;;;;;59.90;10.13;;;-0.80;99.90;;;;;;4948520;28;20043;-75
2023/03/01 07:32:04;;;;;;;30.77;7.60;;;-0.80;99.90;;;;;;4949715;28;20106;-72
2023/03/01 07:34:30;;;;;;;8.83;4.57;;;-0.80;99.90;;;;;;4949118;29;20039;-75
2023/03/01 07:36:56;;;;;;;8.23;5.40;;;-0.80;99.90;;;;;;4948791;28;20043;-71
2023/03/01 07:39:22;;;;;;;7.47;5.43;;;-0.80;99.90;;;;;;4950064;29;20050;-76
2023/03/01 07:41:48;;;;;;;5.23;4.27;;;-0.80;99.90;;;;;;4948618;28;20051;-73
2023/03/01 07:44:16;;;;;;;7.63;4.73;;;-0.80;99.90;;;;;;4946526;29;20051;-73
2023/03/01 07:46:41;;;;;;;9.20;4.80;;;-0.80;99.90;;;;;;4930266;29;20086;-73
2023/03/01 07:49:07;;;;;;;7.47;4.83;;;-0.70;99.90;;;;;;4938069;29;20131;-71
2023/03/01 07:51:33;;;;;;;5.97;4.50;;;-0.70;99.90;;;;;;4922206;29;20039;-75
2023/03/01 07:53:58;;;;;;;9.87;5.43;;;-0.60;99.90;;;;;;4931949;29;20066;-76
2023/03/01 07:56:24;;;;;;;7.63;5.63;;;-0.60;99.90;;;;;;4949604;28;20445;-73
2023/03/01 07:58:49;;;;;;;6.53;4.77;;;-0.60;99.90;;;;;;4932401;29;20039;-80
2023/03/01 08:01:17;;;;;;;7.57;5.20;;;-0.60;99.90;;;;;;4949278;28;20054;-75
2023/03/01 08:03:43;;;;;;;14.27;5.90;;;-0.50;99.90;;;;;;4946369;29;20130;-76
2023/03/01 08:06:10;;;;;;;9.93;4.87;;;-0.50;99.90;;;;;;4931149;28;20560;-74
2023/03/01 08:08:36;;;;;;;8.40;6.97;;;-0.40;99.90;;;;;;4948421;28;20035;-74
2023/03/01 08:11:04;;;;;;;8.77;5.13;;;-0.50;99.90;;;;;;4931642;29;20564;-76
2023/03/01 08:13:31;;;;;;;11.03;6.80;;;-0.40;99.90;;;;;;4947422;28;20047;-75
2023/03/01 08:16:26;;;;;;;9.17;5.27;;;-0.40;99.90;;;;;;4941721;29;20044;-77
2023/03/01 08:18:51;;;;;;;7.83;5.60;;;-0.30;99.90;;;;;;4920998;29;20068;-78
2023/03/01 08:26:28;;;;;;;6.70;5.97;;;-0.10;99.90;;;;;;4661938;23;20796;-72
2023/03/01 08:28:53;;;;;;;7.97;7.07;;;0.00;99.90;;;;;;5001412;28;20042;-72
2023/03/01 08:31:25;;;;;;;10.30;8.30;;;0.00;99.90;;;;;;5007398;28;20052;-71
2023/03/01 08:33:57;;;;;;;10.73;9.50;;;0.10;99.90;;;;;;4990062;28;20050;-73
2023/03/01 08:36:24;;;;;;;14.20;9.48;;;0.20;99.90;;;;;;5007882;28;20046;-73
2023/03/01 08:38:51;;;;;;;11.00;8.10;;;0.20;99.90;;;;;;4989944;28;20075;-78
2023/03/01 08:41:16;;;;;;;17.07;9.90;;;0.30;99.90;;;;;;5020860;28;20045;-75
2023/03/01 08:43:42;;;;;;;16.23;10.67;;;0.30;99.90;;;;;;5028482;28;20044;-73
2023/03/01 08:46:09;;;;;;;12.60;8.90;;;0.30;99.90;;;;;;4991388;28;20042;-83
2023/03/01 08:48:34;;;;;;;10.13;8.93;;;0.40;99.90;;;;;;5008345;28;20160;-73
2023/03/01 08:51:14;;;;;;;19.73;10.57;;;0.50;99.90;;;;;;5007609;28;20579;-75
2023/03/01 08:53:41;;;;;;;14.97;9.57;;;0.50;99.90;;;;;;4990977;28;20081;-73
2023/03/01 08:56:07;;;;;;;14.30;11.27;;;0.60;99.90;;;;;;4974312;28;20058;-74
2023/03/01 08:58:33;;;;;;;12.63;9.27;;;0.60;99.90;;;;;;5008575;28;20034;-89
2023/03/01 09:01:00;;;;;;;12.77;10.00;;;0.70;99.90;;;;;;5005958;28;20103;-74
2023/03/01 09:03:26;;;;;;;13.70;10.30;;;0.70;99.90;;;;;;4997534;28;20047;-73
2023/03/01 09:05:53;;;;;;;18.53;12.97;;;0.80;99.90;;;;;;4998212;28;20037;-74
2023/03/01 09:08:21;;;;;;;22.97;13.90;;;0.80;99.90;;;;;;5007139;28;20037;-72
2023/03/01 09:10:47;;;;;;;15.90;10.50;;;0.90;99.90;;;;;;5007979;28;20139;-73
2023/03/01 09:13:12;;;;;;;23.43;12.20;;;0.90;99.90;;;;;;5007402;28;20097;-72
2023/03/01 09:15:38;;;;;;;16.70;11.40;;;1.00;99.90;;;;;;5008487;28;20054;-72
2023/03/01 09:18:04;;;;;;;11.60;9.70;;;1.00;99.90;;;;;;5007472;28;20046;-72
2023/03/01 09:20:31;;;;;;;19.00;10.43;;;1.00;99.90;;;;;;5007860;28;20511;-72
2023/03/01 09:22:57;;;;;;;18.57;10.57;;;1.10;99.90;;;;;;5009469;28;20056;-72
2023/03/01 09:25:23;;;;;;;14.87;10.07;;;1.10;99.90;;;;;;5027902;28;20038;-73
2023/03/01 09:27:52;;;;;;;14.13;10.53;;;1.20;99.90;;;;;;4993316;28;20061;-72
2023/03/01 09:30:18;;;;;;;13.10;10.20;;;1.30;99.90;;;;;;5008156;28;20030;-73
2023/03/01 09:32:44;;;;;;;16.97;10.57;;;1.20;99.90;;;;;;5007429;28;20045;-73
2023/03/01 09:35:11;;;;;;;14.60;12.47;;;1.30;99.90;;;;;;4976881;28;20571;-78
2023/03/01 09:55:50;;;;;;;15.57;10.73;;;1.50;99.90;;;;;;5088783;27;20411;-75
2023/03/01 09:58:34;;;;;;;21.27;11.53;;;1.70;99.90;;;;;;5091226;28;20048;-74
2023/03/01 10:01:25;;;;;;;14.00;8.60;;;1.70;99.90;;;;;;5084849;28;20127;-74
2023/03/01 10:04:09;;;;;;;9.30;7.33;;;1.80;99.90;;;;;;5090446;28;20063;-74
2023/03/01 10:06:35;;;;;;;11.53;8.07;;;1.80;99.90;;;;;;5083147;28;20041;-74
2023/03/01 10:09:07;;;;;;;14.60;10.03;;;1.90;99.90;;;;;;5086737;28;20051;-75
2023/03/01 10:11:38;;;;;;;10.27;8.27;;;1.90;99.90;;;;;;5084253;28;20045;-75
2023/03/01 10:14:34;;;;;;;12.47;8.73;;;1.90;99.90;;;;;;5088464;28;20063;-76
2023/03/01 10:17:09;;;;;;;15.30;10.17;;;2.00;99.90;;;;;;5083388;28;20087;-74
2023/03/01 10:19:43;;;;;;;10.77;8.07;;;2.00;99.90;;;;;;5084473;28;20047;-88
2023/03/01 10:22:18;;;;;;;18.03;10.37;;;2.10;99.90;;;;;;5095672;28;20047;-79
2023/03/01 10:24:46;;;;;;;13.73;10.33;;;2.10;99.90;;;;;;5080202;28;20040;-77
2023/03/01 10:27:24;;;;;;;21.07;13.53;;;2.10;99.90;;;;;;5082987;28;20049;-77
2023/03/01 10:30:27;;;;;;;16.87;11.83;;;2.20;99.90;;;;;;5082105;28;20052;-81
2023/03/01 10:32:54;;;;;;;15.80;11.07;;;2.30;99.90;;;;;;5082521;28;20041;-80
2023/03/01 10:35:25;;;;;;;18.17;10.93;;;2.30;99.90;;;;;;5083978;28;20086;-81
2023/03/01 10:37:57;;;;;;;16.73;11.40;;;2.40;99.90;;;;;;5084496;28;20032;-81
2023/03/01 10:40:23;;;;;;;15.27;11.33;;;2.40;99.90;;;;;;5083126;28;20048;-82
2023/03/01 10:42:49;;;;;;;15.03;11.13;;;2.40;99.90;;;;;;5084417;28;20040;-82
2023/03/01 10:45:24;;;;;;;23.43;13.67;;;2.50;99.90;;;;;;5081995;28;20044;-83
2023/03/01 10:48:05;;;;;;;12.93;9.20;;;2.60;99.90;;;;;;5084170;28;20043;-84
2023/03/01 10:50:31;;;;;;;16.93;13.30;;;2.70;99.90;;;;;;5084108;28;20044;-84
2023/03/01 10:53:04;;;;;;;21.50;12.07;;;2.70;99.90;;;;;;5084901;28;20434;-84
2023/03/01 10:55:39;;;;;;;13.53;10.40;;;2.80;99.90;;;;;;5074400;28;20496;-80
2023/03/01 10:58:22;;;;;;;17.47;13.47;;;2.90;99.90;;;;;;5076155;28;20045;-80
2023/03/01 11:00:58;;;;;;;17.48;11.23;;;2.90;99.90;;;;;;5071200;28;20513;-80
2023/03/01 11:03:25;;;;;;;20.97;13.97;;;3.00;99.90;;;;;;5066796;28;20076;-77
2023/03/01 11:06:21;;;;;;;23.23;15.53;;;3.00;99.90;;;;;;5076856;28;20068;-83
2023/03/01 11:08:50;;;;;;;20.17;12.83;;;3.10;99.90;;;;;;5072320;28;20079;-84
2023/03/01 11:11:34;;;;;;;13.83;9.67;;;3.10;99.90;;;;;;5086313;28;20496;-80
2023/03/01 11:13:59;;;;;;;16.80;12.77;;;3.10;99.90;;;;;;5069121;28;20122;-80
2023/03/01 11:16:35;;;;;;;14.93;11.00;;;3.10;99.90;;;;;;5070700;28;20087;-84
2023/03/01 11:19:12;;;;;;;19.53;11.00;;;3.20;99.90;;;;;;5069891;28;20040;-85
2023/03/01 11:21:43;;;;;;;14.27;11.03;;;3.20;99.90;;;;;;5069891;28;20053;-73
2023/03/01 11:24:15;;;;;;;16.43;11.47;;;3.30;99.90;;;;;;5070250;28;20045;-74
2023/03/01 11:26:44;;;;;;;15.02;10.52;;;3.30;99.90;;;;;;5067662;28;20045;-73
2023/03/01 11:29:25;;;;;;;14.40;11.73;;;3.40;99.90;;;;;;5070363;28;20090;-74
2023/03/01 11:31:51;;;;;;;16.33;11.00;;;3.40;99.90;;;;;;5073893;28;20040;-74
2023/03/01 11:34:31;;;;;;;12.90;9.97;;;3.50;99.90;;;;;;5087273;28;20044;-75
2023/03/01 11:37:02;;;;;;;13.47;9.40;;;3.50;99.90;;;;;;5069772;28;20040;-74
2023/03/01 11:39:37;;;;;;;13.13;9.70;;;3.50;99.90;;;;;;5075106;28;20055;-74
2023/03/01 11:42:23;;;;;;;11.82;10.57;;;3.60;99.90;;;;;;5068684;28;20105;-74
2023/03/01 11:44:54;;;;;;;10.73;9.07;;;3.60;99.90;;;;;;5068007;28;20091;-74
2023/03/01 11:47:25;;;;;;;15.87;9.60;;;3.70;99.90;;;;;;5051617;28;20028;-76
2023/03/01 11:49:53;;;;;;;25.42;12.75;;;3.70;99.90;;;;;;5065540;28;20036;-79
2023/03/01 11:52:41;;;;;;;12.53;11.10;;;3.70;99.90;;;;;;5061671;28;20120;-79
2023/03/01 11:55:20;;;;;;;18.57;12.03;;;3.70;99.90;;;;;;5074442;28;20059;-79
2023/03/01 11:58:31;;;;;;;12.27;8.77;;;3.80;99.90;;;;;;5064095;28;20117;-70
2023/03/01 12:01:09;;;;;;;11.90;9.73;;;3.80;99.90;;;;;;5047167;28;20078;-77
2023/03/01 12:04:05;;;;;;;13.82;9.18;;;3.90;99.90;;;;;;5072147;28;20565;-71
2023/03/01 12:07:01;;;;;;;9.55;8.32;;;3.90;99.90;;;;;;5071442;28;20079;-72
2023/03/01 12:10:10;;;;;;;16.23;11.60;;;4.00;99.90;;;;;;5064718;28;20055;-73
2023/03/01 12:12:47;;;;;;;13.10;10.18;;;4.00;99.90;;;;;;5050288;28;20056;-73
2023/03/01 12:15:44;;;;;;;15.05;10.40;;;4.10;99.90;;;;;;5084256;28;20048;-72
2023/03/01 12:51:39;;;;;;;16.45;11.10;;;4.50;99.90;;;;;;5018235;27;1227962;-75
2023/03/01 12:54:32;;;;;;;14.15;11.93;;;4.50;99.90;;;;;;5032653;28;20412;-81
2023/03/01 12:57:09;;;;;;;10.02;8.02;;;4.50;99.90;;;;;;5036655;28;20102;-79
2023/03/01 12:59:42;;;;;;;12.98;9.80;;;4.60;99.90;;;;;;5014737;28;20068;-78
2023/03/01 13:02:48;;;;;;;10.68;7.78;;;4.60;99.90;;;;;;5033099;28;20053;-78
2023/03/01 13:05:41;;;;;;;17.48;10.23;;;4.60;99.90;;;;;;5004081;28;20163;-79
2023/03/01 13:08:38;;;;;;;17.88;9.10;;;4.70;99.90;;;;;;5021536;28;20050;-80
2023/03/01 13:11:11;;;;;;;16.35;10.38;;;4.70;99.90;;;;;;5003296;28;20054;-76
2023/03/01 13:13:37;;;;;;;14.95;8.77;;;4.80;99.90;;;;;;5029577;28;20034;-78
2023/03/01 13:16:27;;;;;;;11.45;8.45;;;4.80;99.90;;;;;;5026975;28;20174;-81
2023/03/01 13:19:12;;;;;;;16.98;9.82;;;4.90;99.90;;;;;;5028408;28;20045;-83
2023/03/01 13:21:38;;;;;;;17.83;10.90;;;5.00;99.90;;;;;;5039308;28;20144;-80
2023/03/01 13:24:04;;;;;;;17.10;11.55;;;5.00;99.90;;;;;;5035223;28;20128;-82
2023/03/01 13:26:29;;;;;;;11.57;10.30;;;5.00;99.90;;;;;;5030509;28;20136;-88
2023/03/01 13:28:57;;;;;;;12.77;9.85;;;5.00;99.90;;;;;;5039340;28;20051;-78
2023/03/01 13:31:25;;;;;;;15.93;8.48;;;5.00;99.90;;;;;;5023348;28;20077;-82
2023/03/01 13:33:52;;;;;;;12.85;8.25;;;5.10;99.90;;;;;;5029273;28;20132;-76
2023/03/01 13:36:33;;;;;;;10.52;7.70;;;5.10;99.90;;;;;;5027986;28;20489;-75
2023/03/01 13:39:00;;;;;;;15.20;9.27;;;5.10;99.90;;;;;;4160592;28;10000949;-75
2023/03/01 13:41:41;;;;;;;13.18;8.93;;;5.10;99.90;;;;;;5082568;28;20068;-73
2023/03/01 13:44:26;;;;;;;12.50;9.30;;;5.10;99.90;;;;;;5089153;28;20121;-75
2023/03/01 13:47:13;;;;;;;10.60;8.48;;;5.10;99.90;;;;;;5071250;28;20040;-75
2023/03/01 13:49:59;;;;;;;14.40;9.05;;;5.10;99.90;;;;;;5082109;28;20079;-74
2023/03/01 13:52:42;;;;;;;15.95;9.52;;;5.10;99.90;;;;;;5067107;28;20127;-75